Ellis, Idaho
Current Conditions -  °F | °C
As of 4:55 PM on Wednesday 26 Nov 2014 (Local Time) from KLLJ Reporting Station
Clear Clear  
Wind Chill: 46°   Ceiling: Unl
Heat Index: 46°   Visibility: 10mi
Dew Point: 30°   Wind: 0mph
Humidity: 54%   Direction: NA
Pressure: 30.21"   Gusts: NA
Location:  44.69°N, 114.05°W
Report Text: KLLJ 262355Z AUTO 00000KT 10SM CLR 08/M01 A3021 RMK AO2 SLP216 T00781011 10122 20072 55002
Loading
Personal Weather Stations






























Interactive Weather Map New forecast layout! Learn more

10-Day Weather Forecast

Advertisements
Track Severe Weather on mobile